createdAt,value
2022-12-25T00:00:50.745Z,97521.53
2022-12-25T00:03:36.378Z,97519.09
2022-12-25T00:06:21.962Z,97519.09
2022-12-25T00:09:07.425Z,97515.06
2022-12-25T00:11:52.979Z,97517.91
2022-12-25T00:14:38.748Z,97517.28
2022-12-25T00:17:24.464Z,97522.75
2022-12-25T00:20:10.044Z,97511.59
2022-12-25T00:22:55.666Z,97515.63
2022-12-25T00:25:42.290Z,97519.47
2022-12-25T00:28:28.087Z,97520.03
2022-12-25T00:31:16.285Z,97525.91
2022-12-25T00:34:01.813Z,97513.72
2022-12-25T00:36:50.706Z,97503.78
2022-12-25T00:39:36.262Z,97506.00
2022-12-25T00:42:21.465Z,97503.34
2022-12-25T00:45:07.314Z,97495.41
2022-12-25T00:47:52.780Z,97510.78
2022-12-25T00:50:39.144Z,97511.19
2022-12-25T00:53:25.739Z,97503.88
2022-12-25T00:56:11.401Z,97513.78
2022-12-25T00:58:56.841Z,97515.97
2022-12-25T01:01:42.439Z,97523.28
2022-12-25T01:04:28.265Z,97501.78
2022-12-25T01:07:13.883Z,97516.97
2022-12-25T01:10:18.137Z,97522.41
2022-12-25T01:13:03.485Z,97528.88
2022-12-25T01:15:49.774Z,97518.72
2022-12-25T01:18:35.383Z,97521.13
2022-12-25T01:21:22.541Z,97529.41
2022-12-25T01:24:08.372Z,97518.28
2022-12-25T01:26:54.108Z,97530.00
2022-12-25T01:29:39.504Z,97529.38
2022-12-25T01:32:25.006Z,97544.53
2022-12-25T01:35:10.385Z,97543.09
2022-12-25T01:37:55.891Z,97543.09
2022-12-25T01:40:41.375Z,97533.56
2022-12-25T01:43:30.509Z,97541.03
2022-12-25T01:46:16.784Z,97534.16
2022-12-25T01:49:08.574Z,97537.97
2022-12-25T01:51:59.512Z,97528.47
2022-12-25T01:54:57.796Z,97532.13
2022-12-25T01:57:43.951Z,97537.97
2022-12-25T02:00:29.372Z,97536.19
2022-12-25T02:03:15.018Z,97534.34
2022-12-25T02:06:01.327Z,97536.78
2022-12-25T02:08:46.739Z,97538.59
2022-12-25T02:11:50.920Z,97543.66
2022-12-25T02:14:37.813Z,97534.78
2022-12-25T02:17:28.540Z,97530.34
2022-12-25T02:20:23.432Z,97523.44
2022-12-25T02:23:11.797Z,97520.19
2022-12-25T02:26:18.197Z,97524.22
2022-12-25T02:29:22.730Z,97527.44
2022-12-25T02:32:14.954Z,97529.09
2022-12-25T02:35:22.883Z,97531.72
2022-12-25T02:38:22.642Z,97539.00
2022-12-25T02:41:16.288Z,97536.38
2022-12-25T02:44:29.062Z,97530.28
2022-12-25T02:47:33.472Z,97537.97
2022-12-25T02:50:40.618Z,97541.63
2022-12-25T02:53:45.514Z,97543.22
2022-12-25T02:57:08.143Z,97530.72
2022-12-25T03:00:16.009Z,97533.97
2022-12-25T03:03:23.298Z,97519.19
2022-12-25T03:06:28.554Z,97520.41
2022-12-25T03:09:39.923Z,97522.59
2022-12-25T03:12:34.522Z,97523.78
2022-12-25T03:15:39.466Z,97520.72
2022-12-25T03:18:28.474Z,97508.94
2022-12-25T03:21:32.368Z,97513.16
2022-12-25T03:24:36.663Z,97507.69
2022-12-25T03:27:22.515Z,97502.34
2022-12-25T03:30:44.083Z,97505.31
2022-12-25T03:34:19.232Z,97504.44
2022-12-25T03:37:44.806Z,97497.50
2022-12-25T03:41:14.434Z,97507.50
2022-12-25T03:44:21.338Z,97512.91
2022-12-25T03:47:51.566Z,97512.28
2022-12-25T03:51:03.771Z,97511.81
2022-12-25T03:54:15.207Z,97514.47
2022-12-25T03:57:19.712Z,97514.66
2022-12-25T04:00:24.785Z,97519.91
2022-12-25T04:03:28.831Z,97520.72
2022-12-25T04:06:33.281Z,97509.00
2022-12-25T04:09:37.738Z,97511.28
2022-12-25T04:12:42.160Z,97508.25
2022-12-25T04:15:46.579Z,97509.28
2022-12-25T04:18:50.799Z,97516.53
2022-12-25T04:21:55.047Z,97520.78
2022-12-25T04:24:59.142Z,97518.97
2022-12-25T04:28:03.254Z,97520.59
2022-12-25T04:31:07.350Z,97523.84
2022-12-25T04:34:11.865Z,97523.66
2022-12-25T04:36:57.365Z,97515.38
2022-12-25T04:39:42.956Z,97517.22
2022-12-25T04:42:28.351Z,97511.97
2022-12-25T04:45:14.041Z,97517.22
2022-12-25T04:48:00.951Z,97515.38
2022-12-25T04:50:46.896Z,97514.38
2022-12-25T04:53:32.535Z,97517.03
2022-12-25T04:56:18.359Z,97529.78
2022-12-25T04:59:03.907Z,97518.44
2022-12-25T05:01:49.326Z,97519.28
2022-12-25T05:04:34.548Z,97521.91
2022-12-25T05:07:20.188Z,97525.19
2022-12-25T05:10:05.981Z,97530.22
2022-12-25T05:12:51.591Z,97532.88
2022-12-25T05:15:40.225Z,97533.84
2022-12-25T05:18:25.923Z,97533.84
2022-12-25T05:21:12.439Z,97533.66
2022-12-25T05:23:57.808Z,97533.66
2022-12-25T05:26:43.229Z,97542.97
2022-12-25T05:29:28.772Z,97537.91
2022-12-25T05:32:14.324Z,97538.72
2022-12-25T05:35:00.566Z,97541.53
2022-12-25T05:37:45.993Z,97548.81
2022-12-25T05:40:31.832Z,97547.78
2022-12-25T05:43:17.351Z,97536.69
2022-12-25T05:46:07.501Z,97528.16
2022-12-25T05:48:53.287Z,97532.63
2022-12-25T05:51:38.778Z,97525.91
2022-12-25T05:54:24.050Z,97524.66
2022-12-25T05:57:09.447Z,97528.03
2022-12-25T05:59:55.385Z,97538.94
2022-12-25T06:02:40.917Z,97543.91
2022-12-25T06:05:26.677Z,97548.25
2022-12-25T06:08:12.003Z,97552.66
2022-12-25T06:10:57.870Z,97548.50
2022-12-25T06:13:43.579Z,97546.63
2022-12-25T06:16:35.597Z,97543.09
2022-12-25T06:19:23.115Z,97540.03
2022-12-25T06:22:08.831Z,97546.19
2022-12-25T06:24:55.178Z,97545.28
2022-12-25T06:27:40.973Z,97552.06
2022-12-25T06:30:27.133Z,97550.63
2022-12-25T06:33:12.286Z,97544.13
2022-12-25T06:35:57.834Z,97540.84
2022-12-25T06:38:43.773Z,97544.84
2022-12-25T06:41:30.411Z,97541.13
2022-12-25T06:44:16.324Z,97539.22
2022-12-25T06:47:01.804Z,97536.53
2022-12-25T06:49:47.290Z,97536.41
2022-12-25T06:52:33.600Z,97530.44
2022-12-25T06:55:19.553Z,97533.34
2022-12-25T06:58:04.843Z,97533.22
2022-12-25T07:00:50.522Z,97541.63
2022-12-25T07:03:36.597Z,97545.78
2022-12-25T07:06:21.976Z,97549.91
2022-12-25T07:09:07.660Z,97555.03
2022-12-25T07:11:53.240Z,97547.72
2022-12-25T07:14:38.850Z,97542.19
2022-12-25T07:17:24.933Z,97547.94
2022-12-25T07:20:10.920Z,97549.13
2022-12-25T07:22:56.674Z,97549.03
2022-12-25T07:25:42.236Z,97548.09
2022-12-25T07:28:29.234Z,97551.41
2022-12-25T07:31:16.971Z,97558.31
2022-12-25T07:34:02.750Z,97566.50
2022-12-25T07:36:48.690Z,97569.97
2022-12-25T07:39:35.517Z,97579.97
2022-12-25T07:42:25.119Z,97574.06
2022-12-25T07:45:13.250Z,97565.56
2022-12-25T07:48:04.954Z,97566.53
2022-12-25T07:51:03.067Z,97568.53
2022-12-25T07:53:48.602Z,97566.72
2022-12-25T07:56:34.000Z,97576.41
2022-12-25T07:59:19.812Z,97564.94
2022-12-25T08:02:05.801Z,97568.84
2022-12-25T08:04:51.524Z,97574.38
2022-12-25T08:07:37.254Z,97576.47
2022-12-25T08:10:23.044Z,97578.75
2022-12-25T08:13:14.213Z,97579.03
2022-12-25T08:16:01.651Z,97570.31
2022-12-25T08:18:47.170Z,97583.34
2022-12-25T08:21:32.823Z,97576.25
2022-12-25T08:24:18.552Z,97581.91
2022-12-25T08:27:04.258Z,97579.84
2022-12-25T08:29:49.858Z,97579.25
2022-12-25T08:32:35.550Z,97570.13
2022-12-25T08:35:21.757Z,97582.19
2022-12-25T08:38:07.235Z,97575.88
2022-12-25T08:40:52.870Z,97587.91
2022-12-25T08:43:38.663Z,97584.00
2022-12-25T08:46:24.884Z,97583.75
2022-12-25T08:49:10.686Z,97586.09
2022-12-25T08:51:55.954Z,97579.59
2022-12-25T08:54:41.326Z,97575.69
2022-12-25T08:57:26.755Z,97574.38
2022-12-25T09:00:12.753Z,97576.09
2022-12-25T09:02:58.267Z,97585.47
2022-12-25T09:05:43.739Z,97580.13
2022-12-25T09:08:29.641Z,97577.59
2022-12-25T09:11:15.631Z,97587.16
2022-12-25T09:14:01.640Z,97585.22
2022-12-25T09:16:50.306Z,97578.22
2022-12-25T09:19:36.056Z,97566.75
2022-12-25T09:22:21.577Z,97565.19
2022-12-25T09:25:07.268Z,97559.19
2022-12-25T09:27:53.187Z,97557.25
2022-12-25T09:30:38.488Z,97557.31
2022-12-25T09:33:24.398Z,97546.03
2022-12-25T09:36:11.011Z,97546.91
2022-12-25T09:38:56.827Z,97541.03
2022-12-25T09:42:09.643Z,97540.47
2022-12-25T09:45:02.927Z,97546.22
2022-12-25T09:47:49.533Z,97542.41
2022-12-25T09:50:37.957Z,97540.88
2022-12-25T09:53:24.855Z,97544.78
2022-12-25T09:56:27.399Z,97552.13
2022-12-25T09:59:25.192Z,97543.69
2022-12-25T10:02:33.980Z,97548.97
2022-12-25T10:05:25.666Z,97537.25
2022-12-25T10:08:33.078Z,97541.53
2022-12-25T10:11:30.508Z,97542.59
2022-12-25T10:14:35.165Z,97535.91
2022-12-25T10:17:47.102Z,97521.31
2022-12-25T10:20:44.570Z,97519.31
2022-12-25T10:23:40.843Z,97515.09
2022-12-25T10:26:34.111Z,97519.34
2022-12-25T10:29:19.991Z,97517.34
2022-12-25T10:32:05.523Z,97527.69
2022-12-25T10:34:51.339Z,97525.88
2022-12-25T10:37:36.697Z,97523.03
2022-12-25T10:40:36.920Z,97522.84
2022-12-25T10:43:32.816Z,97507.00
2022-12-25T10:46:19.189Z,97493.81
2022-12-25T10:49:04.878Z,97488.75
2022-12-25T10:51:51.415Z,97487.72
2022-12-25T10:54:36.764Z,97491.38
2022-12-25T10:57:24.860Z,97490.94
2022-12-25T11:00:24.959Z,97474.50
2022-12-25T11:03:23.601Z,97467.97
2022-12-25T11:06:26.451Z,97469.78
2022-12-25T11:09:16.629Z,97467.16
2022-12-25T11:12:02.772Z,97457.56
2022-12-25T11:14:56.546Z,97454.91
2022-12-25T11:17:49.702Z,97451.22
2022-12-25T11:20:37.085Z,97436.97
2022-12-25T11:23:26.515Z,97433.28
2022-12-25T11:26:12.598Z,97426.34
2022-12-25T11:28:59.354Z,97426.31
2022-12-25T11:31:47.516Z,97412.09
2022-12-25T11:34:51.603Z,97385.22
2022-12-25T11:37:50.486Z,97362.66
2022-12-25T11:40:44.459Z,97364.44
2022-12-25T11:43:39.461Z,97369.25
2022-12-25T11:46:48.146Z,97365.91
2022-12-25T11:49:52.183Z,97382.09
2022-12-25T11:52:45.039Z,97387.47
2022-12-25T11:55:45.785Z,97390.44
2022-12-25T11:58:36.454Z,97376.31
2022-12-25T12:01:37.067Z,97376.84
2022-12-25T12:04:31.056Z,97376.56
2022-12-25T12:07:22.264Z,97377.72
2022-12-25T12:10:24.886Z,97383.16
2022-12-25T12:13:20.928Z,97393.94
2022-12-25T12:16:08.473Z,97403.84
2022-12-25T12:18:54.345Z,97392.00
2022-12-25T12:21:41.591Z,97389.72
2022-12-25T12:24:43.395Z,97379.94
2022-12-25T12:27:37.321Z,97375.81
2022-12-25T12:30:35.981Z,97374.38
2022-12-25T12:33:22.163Z,97358.03
2022-12-25T12:36:14.254Z,97347.00
2022-12-25T12:38:59.963Z,97349.84
2022-12-25T12:41:48.640Z,97340.16
2022-12-25T12:44:34.867Z,97349.59
2022-12-25T12:47:41.472Z,97332.88
2022-12-25T12:50:37.108Z,97333.03
2022-12-25T12:53:22.211Z,97333.59
2022-12-25T12:56:11.697Z,97323.00
2022-12-25T12:58:57.216Z,97329.94
2022-12-25T13:01:53.365Z,97318.53
2022-12-25T13:04:52.272Z,97320.59
2022-12-25T13:07:52.951Z,97317.59
2022-12-25T13:10:45.651Z,97313.78
2022-12-25T13:13:37.114Z,97319.72
2022-12-25T13:16:39.082Z,97318.94
2022-12-25T13:19:27.783Z,97308.34
2022-12-25T13:22:24.597Z,97313.34
2022-12-25T13:25:21.229Z,97303.06
2022-12-25T13:28:14.082Z,97297.63
2022-12-25T13:31:18.300Z,97295.84
2022-12-25T13:34:05.089Z,97308.94
2022-12-25T13:36:50.607Z,97302.50
2022-12-25T13:39:39.524Z,97295.22
2022-12-25T13:42:33.781Z,97292.41
2022-12-25T13:45:24.233Z,97291.16
2022-12-25T13:48:15.744Z,97299.63
2022-12-25T13:51:02.299Z,97291.78
2022-12-25T13:53:47.934Z,97285.25
2022-12-25T13:56:36.186Z,97285.88
2022-12-25T13:59:25.561Z,97302.81
2022-12-25T14:02:22.226Z,97311.31
2022-12-25T14:05:42.042Z,97303.00
2022-12-25T14:08:32.330Z,97291.50
2022-12-25T14:11:22.428Z,97304.50
2022-12-25T14:14:35.617Z,97305.91
2022-12-25T14:17:22.530Z,97296.41
2022-12-25T14:20:21.558Z,97288.91
2022-12-25T14:23:07.809Z,97290.97
2022-12-25T14:25:53.743Z,97298.41
2022-12-25T14:28:39.619Z,97313.03
2022-12-25T14:31:29.036Z,97303.41
2022-12-25T14:34:22.556Z,97305.81
2022-12-25T14:37:17.269Z,97297.59
2022-12-25T14:40:07.105Z,97296.72
2022-12-25T14:42:57.541Z,97272.03
2022-12-25T14:45:43.126Z,97266.47
2022-12-25T14:48:31.795Z,97256.84
2022-12-25T14:51:18.282Z,97260.69
2022-12-25T14:54:13.998Z,97274.44
2022-12-25T14:56:59.611Z,97270.47
2022-12-25T14:59:45.487Z,97267.09
2022-12-25T15:02:40.368Z,97270.59
2022-12-25T15:05:37.978Z,97277.41
2022-12-25T15:08:24.483Z,97270.19
2022-12-25T15:11:10.124Z,97276.75
2022-12-25T15:13:56.601Z,97275.63
2022-12-25T15:16:46.639Z,97280.78
2022-12-25T15:19:38.475Z,97292.47
2022-12-25T15:22:24.315Z,97293.13
2022-12-25T15:25:14.392Z,97290.16
2022-12-25T15:28:00.198Z,97290.38
2022-12-25T15:30:46.184Z,97282.94
2022-12-25T15:33:33.214Z,97274.66
2022-12-25T15:36:19.191Z,97272.47
2022-12-25T15:39:04.647Z,97283.69
2022-12-25T15:42:08.837Z,97289.41
2022-12-25T15:44:54.443Z,97285.56
2022-12-25T15:47:40.012Z,97288.63
2022-12-25T15:50:25.400Z,97286.00
2022-12-25T15:53:11.176Z,97285.41
2022-12-25T15:55:56.948Z,97287.66
2022-12-25T15:58:42.864Z,97281.38
2022-12-25T16:01:28.254Z,97275.91
2022-12-25T16:04:13.998Z,97257.84
2022-12-25T16:07:00.047Z,97264.56
2022-12-25T16:09:45.789Z,97258.88
2022-12-25T16:12:31.476Z,97249.16
2022-12-25T16:15:17.758Z,97228.91
2022-12-25T16:18:03.976Z,97204.19
2022-12-25T16:20:51.539Z,97190.63
2022-12-25T16:23:37.131Z,97186.78
2022-12-25T16:26:22.782Z,97202.19
2022-12-25T16:29:08.838Z,97211.50
2022-12-25T16:31:54.708Z,97220.81
2022-12-25T16:34:40.769Z,97227.28
2022-12-25T16:37:27.717Z,97220.63
2022-12-25T16:40:13.193Z,97225.25
2022-12-25T16:42:58.793Z,97230.13
2022-12-25T16:45:44.157Z,97213.75
2022-12-25T16:48:29.680Z,97208.66
2022-12-25T16:51:17.903Z,97221.44
2022-12-25T16:54:04.163Z,97226.06
2022-12-25T16:56:49.549Z,97223.66
2022-12-25T16:59:35.991Z,97222.03
2022-12-25T17:02:21.887Z,97212.31
2022-12-25T17:05:08.174Z,97216.56
2022-12-25T17:07:54.361Z,97223.63
2022-12-25T17:10:39.597Z,97226.47
2022-12-25T17:13:24.858Z,97219.78
2022-12-25T17:16:16.435Z,97222.63
2022-12-25T17:19:09.740Z,97217.75
2022-12-25T17:21:55.579Z,97212.50
2022-12-25T17:24:41.649Z,97205.81
2022-12-25T17:27:27.770Z,97203.19
2022-12-25T17:30:13.442Z,97209.03
2022-12-25T17:32:58.936Z,97200.94
2022-12-25T17:35:44.369Z,97197.09
2022-12-25T17:38:31.489Z,97195.66
2022-12-25T17:41:18.995Z,97200.50
2022-12-25T17:44:04.735Z,97204.34
2022-12-25T17:46:51.266Z,97192.81
2022-12-25T17:49:37.085Z,97181.47
2022-12-25T17:52:22.761Z,97187.91
2022-12-25T17:55:08.924Z,97185.06
2022-12-25T17:57:54.268Z,97180.63
2022-12-25T18:00:39.931Z,97187.47
2022-12-25T18:03:25.481Z,97192.28
2022-12-25T18:06:13.877Z,97187.81
2022-12-25T18:08:59.442Z,97187.81
2022-12-25T18:11:44.823Z,97187.34
2022-12-25T18:14:30.617Z,97198.84
2022-12-25T18:17:16.132Z,97203.47
2022-12-25T18:20:01.682Z,97201.25
2022-12-25T18:22:48.469Z,97200.25
2022-12-25T18:25:34.098Z,97195.00
2022-12-25T18:28:19.965Z,97181.84
2022-12-25T18:31:27.826Z,97181.84
2022-12-25T18:34:13.562Z,97174.97
2022-12-25T18:37:03.012Z,97174.19
2022-12-25T18:39:48.827Z,97175.97
2022-12-25T18:42:40.329Z,97170.72
2022-12-25T18:45:26.375Z,97177.81
2022-12-25T18:48:12.127Z,97166.69
2022-12-25T18:51:06.691Z,97161.00
2022-12-25T18:53:52.305Z,97152.69
2022-12-25T18:56:38.478Z,97173.28
2022-12-25T18:59:24.191Z,97152.84
2022-12-25T19:02:16.627Z,97140.50
2022-12-25T19:05:02.396Z,97143.13
2022-12-25T19:07:48.245Z,97152.34
2022-12-25T19:10:33.923Z,97146.88
2022-12-25T19:13:19.624Z,97150.47
2022-12-25T19:16:05.285Z,97161.53
2022-12-25T19:18:51.273Z,97155.06
2022-12-25T19:21:36.772Z,97153.81
2022-12-25T19:24:23.390Z,97147.13
2022-12-25T19:27:09.490Z,97146.53
2022-12-25T19:29:55.229Z,97144.47
2022-12-25T19:32:40.719Z,97153.47
2022-12-25T19:35:26.187Z,97156.06
2022-12-25T19:38:11.775Z,97151.03
2022-12-25T19:41:01.004Z,97139.06
2022-12-25T19:44:00.921Z,97136.03
2022-12-25T19:46:47.303Z,97121.47
2022-12-25T19:49:32.788Z,97106.94
2022-12-25T19:52:18.362Z,97124.69
2022-12-25T19:55:04.162Z,97121.63
2022-12-25T19:57:49.859Z,97134.06
2022-12-25T20:00:35.508Z,97132.19
2022-12-25T20:03:21.231Z,97123.47
2022-12-25T20:06:07.872Z,97128.06
2022-12-25T20:08:56.396Z,97125.81
2022-12-25T20:11:43.535Z,97129.81
2022-12-25T20:14:29.285Z,97124.94
2022-12-25T20:17:16.229Z,97129.94
2022-12-25T20:20:02.134Z,97124.91
2022-12-25T20:22:47.839Z,97135.56
2022-12-25T20:25:33.317Z,97138.19
2022-12-25T20:28:18.721Z,97128.16
2022-12-25T20:31:09.941Z,97128.75
2022-12-25T20:33:56.582Z,97130.56
2022-12-25T20:36:42.437Z,97127.16
2022-12-25T20:39:27.999Z,97124.09
2022-12-25T20:42:13.833Z,97121.84
2022-12-25T20:44:59.550Z,97125.63
2022-12-25T20:47:45.119Z,97116.34
2022-12-25T20:50:30.786Z,97120.50
2022-12-25T20:53:17.988Z,97119.06
2022-12-25T20:56:04.773Z,97117.44
2022-12-25T20:58:59.166Z,97105.94
2022-12-25T21:01:44.933Z,97109.72
2022-12-25T21:04:31.875Z,97114.69
2022-12-25T21:07:17.185Z,97109.00
2022-12-25T21:10:03.577Z,97112.81
2022-12-25T21:12:49.063Z,97103.53
2022-12-25T21:15:34.549Z,97121.22
2022-12-25T21:18:22.501Z,97116.56
2022-12-25T21:21:09.163Z,97122.16
2022-12-25T21:23:57.452Z,97122.69
2022-12-25T21:26:47.966Z,97123.88
2022-12-25T21:29:35.370Z,97116.41
2022-12-25T21:32:39.789Z,97117.38
2022-12-25T21:35:25.466Z,97125.44
2022-12-25T21:38:11.536Z,97139.50
2022-12-25T21:41:02.991Z,97136.25
2022-12-25T21:43:48.499Z,97148.69
2022-12-25T21:46:33.981Z,97147.25
2022-12-25T21:49:39.265Z,97150.25
2022-12-25T21:52:24.680Z,97140.31
2022-12-25T21:55:10.220Z,97136.25
2022-12-25T21:57:55.805Z,97140.66
2022-12-25T22:00:41.280Z,97147.72
2022-12-25T22:03:26.720Z,97143.47
2022-12-25T22:06:31.449Z,97146.81
2022-12-25T22:09:17.360Z,97150.97
2022-12-25T22:12:22.565Z,97154.94
2022-12-25T22:15:09.989Z,97149.50
2022-12-25T22:18:13.795Z,97147.53
2022-12-25T22:20:59.228Z,97147.91
2022-12-25T22:23:45.037Z,97161.16
2022-12-25T22:26:30.121Z,97147.91
2022-12-25T22:29:15.626Z,97156.38
2022-12-25T22:32:01.166Z,97165.31
2022-12-25T22:34:47.078Z,97184.53
2022-12-25T22:37:33.176Z,97185.72
2022-12-25T22:40:20.028Z,97180.53
2022-12-25T22:43:05.623Z,97187.19
2022-12-25T22:45:51.315Z,97180.53
2022-12-25T22:48:36.543Z,97177.81
2022-12-25T22:51:29.779Z,97182.47
2022-12-25T22:54:17.542Z,97182.56
2022-12-25T22:57:04.610Z,97192.03
2022-12-25T22:59:52.109Z,97187.38
2022-12-25T23:02:38.054Z,97192.34
2022-12-25T23:05:24.899Z,97188.16
2022-12-25T23:08:10.688Z,97183.56
2022-12-25T23:11:01.892Z,97173.25
2022-12-25T23:14:06.371Z,97186.09
2022-12-25T23:16:52.431Z,97182.91
2022-12-25T23:19:56.749Z,97181.19
2022-12-25T23:23:01.161Z,97182.69
2022-12-25T23:26:06.055Z,97176.69
2022-12-25T23:29:10.040Z,97179.03
2022-12-25T23:31:57.759Z,97175.53
2022-12-25T23:34:45.421Z,97186.41
2022-12-25T23:37:31.588Z,97199.31
2022-12-25T23:40:17.424Z,97199.63
2022-12-25T23:43:03.201Z,97203.78
2022-12-25T23:45:48.812Z,97216.00
2022-12-25T23:48:34.246Z,97221.03
2022-12-25T23:51:20.795Z,97222.06
2022-12-25T23:54:07.068Z,97218.41
2022-12-25T23:56:53.102Z,97228.59
2022-12-25T23:59:38.673Z,97240.44
